Time;durP1;ratioP1;P1;durP2;ratioP2;P2;SDS_P1;SDS_P2;PMS_P1;PMS_P2;Temp;Humidity;BMP_temperature;BMP_pressure;BME280_temperature;BME280_humidity;BME280_pressure;Samples;Min_cycle;Max_cycle;Signal;HPM_P1;HPM_P2
2022/07/09 00:00:34;;;;;;;2.60;2.07;;;17.50;99.90;;;;;;5074139;28;20447;-59
2022/07/09 00:03:00;;;;;;;9.90;2.20;;;17.50;99.90;;;;;;5074098;28;20451;-59
2022/07/09 00:05:27;;;;;;;2.90;2.13;;;17.40;99.90;;;;;;5073982;28;20538;-59
2022/07/09 00:07:53;;;;;;;2.30;2.10;;;17.40;99.90;;;;;;5073881;28;20546;-58
2022/07/09 00:10:20;;;;;;;2.10;2.00;;;17.30;99.90;;;;;;5073668;28;20454;-59
2022/07/09 00:12:47;;;;;;;2.40;2.10;;;17.20;99.90;;;;;;5073743;28;20538;-59
2022/07/09 00:15:14;;;;;;;3.03;2.20;;;17.20;99.90;;;;;;5073866;28;20448;-59
2022/07/09 00:17:41;;;;;;;3.60;2.07;;;17.20;99.90;;;;;;5073807;28;20780;-60
2022/07/09 00:20:09;;;;;;;3.47;1.90;;;17.20;99.90;;;;;;5073699;28;20814;-59
2022/07/09 00:22:36;;;;;;;2.47;2.23;;;17.10;99.90;;;;;;5073476;28;20546;-59
2022/07/09 00:25:03;;;;;;;3.07;1.80;;;17.20;99.90;;;;;;5073741;28;20452;-59
2022/07/09 00:27:30;;;;;;;2.83;1.63;;;17.20;99.90;;;;;;5073480;28;20452;-59
2022/07/09 00:29:56;;;;;;;3.90;2.10;;;17.10;99.90;;;;;;5073580;28;20448;-59
2022/07/09 00:32:23;;;;;;;4.40;2.53;;;17.10;99.90;;;;;;5073549;28;20447;-59
2022/07/09 00:34:50;;;;;;;5.30;3.70;;;17.10;99.90;;;;;;5073372;28;20450;-59
2022/07/09 00:37:17;;;;;;;3.50;3.20;;;17.10;99.90;;;;;;5073287;28;20451;-59
2022/07/09 00:39:43;;;;;;;4.90;4.40;;;17.00;99.90;;;;;;5072543;28;20489;-59
2022/07/09 00:42:12;;;;;;;4.03;2.70;;;17.00;99.90;;;;;;5073418;28;20542;-59
2022/07/09 00:44:39;;;;;;;2.90;2.10;;;17.00;99.90;;;;;;5073343;28;20547;-59
2022/07/09 00:47:07;;;;;;;2.90;2.13;;;17.00;99.90;;;;;;5073259;28;20811;-59
2022/07/09 00:49:36;;;;;;;2.87;2.03;;;16.90;99.90;;;;;;5073244;28;20447;-59
2022/07/09 00:52:06;;;;;;;2.57;1.80;;;16.90;99.90;;;;;;5073093;28;20447;-60
2022/07/09 00:54:35;;;;;;;2.00;1.90;;;16.90;99.90;;;;;;5073527;28;20447;-59
2022/07/09 00:57:04;;;;;;;2.37;2.00;;;16.80;99.90;;;;;;5072920;28;20470;-59
2022/07/09 00:59:31;;;;;;;4.73;2.80;;;16.70;99.90;;;;;;5072992;28;21021;-59
2022/07/09 01:01:58;;;;;;;3.33;1.73;;;16.70;99.90;;;;;;5073067;28;20448;-59
2022/07/09 01:04:24;;;;;;;2.07;1.87;;;16.60;99.90;;;;;;5072889;28;20811;-59
2022/07/09 01:06:51;;;;;;;4.13;1.93;;;16.60;99.90;;;;;;5073169;28;20542;-60
2022/07/09 01:09:19;;;;;;;5.50;1.90;;;16.50;99.90;;;;;;5073084;28;20534;-59
2022/07/09 01:11:47;;;;;;;3.10;2.00;;;16.50;99.90;;;;;;5072977;28;20447;-59
2022/07/09 01:14:14;;;;;;;2.33;2.00;;;16.50;99.90;;;;;;5072918;28;20483;-60
2022/07/09 01:16:40;;;;;;;3.27;2.07;;;16.40;99.90;;;;;;5072845;28;20449;-59
2022/07/09 01:19:08;;;;;;;3.03;1.93;;;16.40;99.90;;;;;;5072717;28;20522;-60
2022/07/09 01:21:36;;;;;;;5.03;2.20;;;16.30;99.90;;;;;;5072939;28;20881;-57
2022/07/09 01:24:03;;;;;;;2.43;1.90;;;16.20;99.90;;;;;;5072896;28;20454;-59
2022/07/09 01:26:30;;;;;;;4.67;2.20;;;16.20;99.90;;;;;;5072767;28;20447;-59
2022/07/09 01:28:57;;;;;;;3.30;2.10;;;16.10;99.90;;;;;;5072719;28;20447;-59
2022/07/09 01:31:23;;;;;;;3.83;1.97;;;16.10;99.90;;;;;;5072569;28;20883;-57
2022/07/09 01:33:50;;;;;;;3.33;1.97;;;16.10;99.90;;;;;;5072886;28;20855;-59
2022/07/09 01:36:16;;;;;;;5.83;2.17;;;16.00;99.90;;;;;;5072762;28;20454;-58
2022/07/09 01:38:44;;;;;;;2.80;1.93;;;16.00;99.90;;;;;;5072615;28;20468;-59
2022/07/09 01:41:11;;;;;;;7.43;2.33;;;15.90;99.90;;;;;;5072667;28;20447;-60
2022/07/09 01:43:37;;;;;;;3.70;2.60;;;15.80;99.90;;;;;;5072610;28;20939;-58
2022/07/09 01:46:04;;;;;;;2.90;2.00;;;15.80;99.90;;;;;;5072441;28;20452;-59
2022/07/09 01:48:30;;;;;;;6.07;2.50;;;15.80;99.90;;;;;;5072904;28;20458;-59
2022/07/09 01:50:58;;;;;;;3.93;2.20;;;15.70;99.90;;;;;;5075534;28;20447;-59
2022/07/09 01:53:25;;;;;;;8.50;2.93;;;15.70;99.90;;;;;;5076589;28;20446;-59
2022/07/09 01:55:53;;;;;;;4.73;2.87;;;15.70;99.90;;;;;;5076204;28;20993;-58
2022/07/09 01:58:20;;;;;;;3.43;2.00;;;15.60;99.90;;;;;;5076312;28;20489;-59
2022/07/09 02:00:46;;;;;;;2.90;2.40;;;15.60;99.90;;;;;;5076762;28;20447;-59
2022/07/09 02:03:13;;;;;;;6.47;3.40;;;15.60;99.90;;;;;;5076414;28;20893;-59
2022/07/09 02:05:39;;;;;;;14.67;3.23;;;15.60;99.90;;;;;;5076350;28;20447;-59
2022/07/09 02:08:06;;;;;;;8.40;3.20;;;15.60;99.90;;;;;;5076185;28;20447;-59
2022/07/09 02:10:33;;;;;;;6.77;2.30;;;15.60;99.90;;;;;;5076110;28;20538;-59
2022/07/09 02:13:00;;;;;;;6.47;2.67;;;15.50;99.90;;;;;;5076060;28;20451;-59
2022/07/09 02:15:27;;;;;;;13.70;2.90;;;15.50;99.90;;;;;;5075996;28;20810;-58
2022/07/09 02:17:54;;;;;;;10.43;2.90;;;15.40;99.90;;;;;;5076104;28;20454;-59
2022/07/09 02:20:20;;;;;;;6.67;2.57;;;15.40;99.90;;;;;;5075919;28;20479;-59
2022/07/09 02:22:47;;;;;;;5.47;2.60;;;15.40;99.90;;;;;;5075989;28;20462;-59
2022/07/09 02:25:14;;;;;;;4.03;2.87;;;15.30;99.90;;;;;;5075840;28;20539;-59
2022/07/09 02:27:40;;;;;;;6.60;3.00;;;15.30;99.90;;;;;;5075669;28;20748;-59
2022/07/09 02:30:09;;;;;;;5.70;3.20;;;15.20;99.90;;;;;;5075932;28;20545;-60
2022/07/09 02:32:36;;;;;;;5.80;2.90;;;15.20;99.90;;;;;;5076044;28;20447;-59
2022/07/09 02:35:02;;;;;;;7.80;3.10;;;15.20;99.90;;;;;;5076016;28;20452;-59
2022/07/09 02:37:29;;;;;;;3.10;2.80;;;15.20;99.90;;;;;;5075733;28;20453;-59
2022/07/09 02:39:55;;;;;;;9.23;2.70;;;15.20;99.90;;;;;;5075503;28;20485;-59
2022/07/09 02:42:22;;;;;;;14.77;3.50;;;15.20;99.90;;;;;;5075986;28;20453;-59
2022/07/09 02:44:48;;;;;;;5.77;2.90;;;15.10;99.90;;;;;;5075650;28;20447;-59
2022/07/09 02:47:16;;;;;;;6.30;3.20;;;15.10;99.90;;;;;;5075604;28;20542;-59
2022/07/09 02:49:43;;;;;;;5.00;2.93;;;15.10;99.90;;;;;;5075506;28;20475;-59
2022/07/09 02:52:09;;;;;;;5.87;2.90;;;15.00;99.90;;;;;;5075369;28;20454;-59
2022/07/09 02:54:36;;;;;;;3.60;2.90;;;15.00;99.90;;;;;;5075270;28;20451;-59
2022/07/09 02:57:02;;;;;;;5.53;3.53;;;15.00;99.90;;;;;;5075090;28;20471;-59
2022/07/09 02:59:29;;;;;;;5.17;2.97;;;15.00;99.90;;;;;;5075300;28;20489;-58
2022/07/09 03:01:56;;;;;;;7.33;3.33;;;15.00;99.90;;;;;;5074263;28;20508;-60
2022/07/09 03:04:24;;;;;;;6.60;2.93;;;15.00;99.90;;;;;;5075188;28;20450;-58
2022/07/09 03:06:50;;;;;;;5.50;2.93;;;15.00;99.90;;;;;;5075172;28;20830;-59
2022/07/09 03:09:17;;;;;;;7.63;3.00;;;15.00;99.90;;;;;;5074911;28;20448;-58
2022/07/09 03:11:43;;;;;;;7.77;3.43;;;15.10;99.90;;;;;;5075192;28;20444;-59
2022/07/09 03:14:10;;;;;;;8.30;2.97;;;15.00;99.90;;;;;;5075104;28;20518;-59
2022/07/09 03:16:36;;;;;;;3.33;2.67;;;15.10;99.90;;;;;;5074865;28;20946;-59
2022/07/09 03:19:03;;;;;;;8.50;3.53;;;15.10;99.90;;;;;;5075619;28;20962;-60
2022/07/09 03:21:30;;;;;;;4.70;3.17;;;15.10;99.90;;;;;;5074838;28;20519;-58
2022/07/09 03:23:57;;;;;;;7.87;3.50;;;15.10;99.90;;;;;;5074693;28;20447;-59
2022/07/09 03:26:23;;;;;;;6.90;3.50;;;15.10;99.90;;;;;;5074849;28;20447;-60
2022/07/09 03:28:50;;;;;;;8.17;3.53;;;15.20;99.90;;;;;;5074620;28;20965;-59
2022/07/09 03:31:16;;;;;;;9.40;3.30;;;15.10;99.90;;;;;;5074730;28;20451;-58
2022/07/09 03:33:43;;;;;;;5.60;3.20;;;15.20;99.90;;;;;;5074588;28;20475;-59
2022/07/09 03:36:10;;;;;;;7.17;2.80;;;15.20;99.90;;;;;;5074560;28;20955;-59
2022/07/09 03:38:38;;;;;;;4.80;3.60;;;15.20;99.90;;;;;;5074300;28;20458;-58
2022/07/09 03:41:05;;;;;;;6.67;4.50;;;15.20;99.90;;;;;;5074462;28;20483;-59
2022/07/09 03:43:32;;;;;;;5.00;3.57;;;15.20;99.90;;;;;;5074482;28;20534;-59
2022/07/09 03:45:58;;;;;;;8.10;3.50;;;15.20;99.90;;;;;;5074403;28;20448;-59
2022/07/09 03:48:25;;;;;;;6.93;3.40;;;15.20;99.90;;;;;;5074162;28;21037;-59
2022/07/09 03:50:51;;;;;;;3.40;3.10;;;15.20;99.90;;;;;;5074161;28;20451;-59
2022/07/09 03:53:18;;;;;;;3.80;3.50;;;15.20;99.90;;;;;;5074115;28;20450;-59
2022/07/09 03:55:46;;;;;;;4.90;2.90;;;15.10;99.90;;;;;;5074263;28;20479;-59
2022/07/09 03:58:12;;;;;;;8.30;3.30;;;15.10;99.90;;;;;;5073772;28;20486;-59
2022/07/09 04:00:39;;;;;;;5.50;3.60;;;15.10;99.90;;;;;;5074025;28;20485;-59
2022/07/09 04:03:05;;;;;;;4.80;3.20;;;15.20;99.90;;;;;;5073936;28;20447;-59
2022/07/09 04:05:32;;;;;;;4.43;3.17;;;15.20;99.90;;;;;;5073847;28;20451;-59
2022/07/09 04:07:58;;;;;;;4.17;3.07;;;15.20;99.90;;;;;;5074057;28;20454;-59
2022/07/09 04:10:25;;;;;;;4.23;3.17;;;15.20;99.90;;;;;;5073904;28;20451;-60
2022/07/09 04:12:52;;;;;;;5.97;3.00;;;15.20;99.90;;;;;;5073675;28;20447;-58
2022/07/09 04:15:19;;;;;;;8.23;3.90;;;15.20;99.90;;;;;;5073802;28;20974;-60
2022/07/09 04:17:46;;;;;;;3.20;2.67;;;15.30;99.90;;;;;;5073696;28;20447;-59
2022/07/09 04:20:12;;;;;;;10.10;3.40;;;15.40;99.90;;;;;;5073479;28;20479;-58
2022/07/09 04:22:39;;;;;;;4.80;3.00;;;15.50;99.90;;;;;;5073813;28;20562;-59
2022/07/09 04:25:06;;;;;;;7.23;2.87;;;15.50;99.90;;;;;;5073657;28;20458;-59
2022/07/09 04:27:33;;;;;;;4.00;2.63;;;15.50;99.90;;;;;;5073601;28;20534;-59
2022/07/09 04:30:01;;;;;;;9.57;2.80;;;15.60;99.90;;;;;;5073499;28;20451;-60
2022/07/09 04:32:28;;;;;;;4.73;3.13;;;15.60;99.90;;;;;;5073432;28;20451;-59
2022/07/09 04:34:55;;;;;;;4.43;2.40;;;15.60;99.90;;;;;;5073335;28;20448;-59
2022/07/09 04:37:21;;;;;;;2.63;2.40;;;15.70;99.90;;;;;;5073488;28;20535;-59
2022/07/09 04:39:48;;;;;;;7.17;2.77;;;15.80;99.90;;;;;;5073169;28;20554;-59
2022/07/09 04:42:15;;;;;;;3.23;2.60;;;15.80;99.90;;;;;;5073322;28;20547;-58
2022/07/09 04:44:42;;;;;;;5.37;2.30;;;15.80;99.90;;;;;;5073224;28;20450;-59
2022/07/09 04:47:09;;;;;;;2.00;1.87;;;15.90;99.90;;;;;;5073194;28;20795;-59
2022/07/09 04:49:36;;;;;;;5.53;2.73;;;15.90;99.90;;;;;;5073065;28;20454;-59
2022/07/09 04:52:02;;;;;;;4.97;2.50;;;16.00;99.90;;;;;;5073217;28;20440;-59
2022/07/09 04:54:29;;;;;;;3.03;2.20;;;16.10;99.90;;;;;;5073200;28;20457;-59
2022/07/09 04:56:55;;;;;;;5.70;2.07;;;16.10;99.90;;;;;;5072793;28;20472;-59
2022/07/09 04:59:22;;;;;;;5.47;2.03;;;16.10;99.90;;;;;;5072997;28;20798;-59
2022/07/09 05:01:49;;;;;;;5.80;2.47;;;16.20;99.90;;;;;;5072972;28;20530;-59
2022/07/09 05:04:17;;;;;;;3.70;1.97;;;16.20;99.90;;;;;;5073111;28;20466;-59
2022/07/09 05:06:44;;;;;;;4.47;2.00;;;16.20;99.90;;;;;;5073104;28;20443;-57
2022/07/09 05:09:10;;;;;;;2.80;1.73;;;16.20;99.90;;;;;;5072956;28;20443;-58
2022/07/09 05:11:37;;;;;;;3.40;2.00;;;16.20;99.90;;;;;;5072937;28;20542;-59
2022/07/09 05:14:03;;;;;;;7.03;2.60;;;16.20;99.90;;;;;;5072887;28;20545;-59
2022/07/09 05:16:30;;;;;;;2.40;2.20;;;16.20;99.90;;;;;;5072797;28;20453;-59
2022/07/09 05:18:56;;;;;;;3.37;2.10;;;16.30;99.90;;;;;;5072720;28;20938;-59
2022/07/09 05:21:24;;;;;;;3.37;2.27;;;16.40;99.90;;;;;;5072811;28;20833;-58
2022/07/09 05:23:51;;;;;;;2.27;1.70;;;16.40;99.90;;;;;;5072708;28;20455;-60
2022/07/09 05:26:17;;;;;;;5.93;2.23;;;16.50;99.90;;;;;;5072427;28;20443;-58
2022/07/09 05:28:44;;;;;;;2.60;2.00;;;16.50;99.90;;;;;;5072779;28;20817;-58
2022/07/09 05:31:10;;;;;;;4.33;2.37;;;16.50;99.90;;;;;;5072683;28;20561;-59
2022/07/09 05:33:37;;;;;;;3.10;1.97;;;16.60;99.90;;;;;;5072508;28;20451;-59
2022/07/09 05:36:04;;;;;;;5.17;2.50;;;16.60;99.90;;;;;;5072832;28;20969;-59
2022/07/09 05:38:32;;;;;;;4.67;2.40;;;16.60;99.90;;;;;;5072595;28;20458;-59
2022/07/09 05:40:58;;;;;;;3.77;2.13;;;16.60;99.90;;;;;;5072583;28;20518;-59
2022/07/09 05:43:25;;;;;;;4.20;2.97;;;16.70;99.90;;;;;;5072517;28;20453;-59
2022/07/09 05:45:51;;;;;;;2.53;2.30;;;16.80;99.90;;;;;;5072490;28;20446;-59
2022/07/09 05:48:18;;;;;;;2.73;2.50;;;16.90;99.90;;;;;;5072720;28;20853;-59
2022/07/09 05:50:44;;;;;;;6.67;2.40;;;17.00;99.90;;;;;;5072634;28;20550;-59
2022/07/09 05:53:11;;;;;;;3.70;2.20;;;17.00;99.90;;;;;;5072618;28;20447;-59
2022/07/09 05:55:39;;;;;;;3.67;2.00;;;17.10;99.90;;;;;;5072559;28;20606;-59
2022/07/09 05:58:05;;;;;;;3.70;2.30;;;17.10;99.90;;;;;;5072211;28;21056;-59
2022/07/09 06:00:32;;;;;;;6.47;2.90;;;17.20;99.90;;;;;;5072563;28;20510;-59
2022/07/09 06:02:58;;;;;;;2.43;2.23;;;17.20;99.90;;;;;;5072555;28;20874;-59
2022/07/09 06:05:25;;;;;;;3.20;1.73;;;17.30;99.90;;;;;;5072462;28;20489;-59
2022/07/09 06:07:51;;;;;;;2.20;2.00;;;17.40;99.90;;;;;;5072389;28;20530;-59
2022/07/09 06:10:18;;;;;;;4.00;2.23;;;17.30;99.90;;;;;;5072336;28;20849;-58
2022/07/09 06:12:45;;;;;;;5.53;2.10;;;17.20;99.90;;;;;;5072206;28;20451;-59
2022/07/09 06:15:12;;;;;;;2.80;1.80;;;17.30;99.90;;;;;;5072470;28;20470;-59
2022/07/09 06:17:39;;;;;;;3.50;2.20;;;17.50;99.90;;;;;;5072265;28;20443;-59
2022/07/09 06:20:07;;;;;;;4.10;1.93;;;17.50;99.90;;;;;;5072258;28;20524;-59
2022/07/09 06:22:33;;;;;;;3.03;2.73;;;17.60;99.90;;;;;;5072177;28;21006;-59
2022/07/09 06:25:00;;;;;;;4.60;2.80;;;17.60;99.90;;;;;;5072260;28;20493;-59
2022/07/09 06:27:26;;;;;;;6.37;2.37;;;17.50;99.90;;;;;;5072111;28;20451;-58
2022/07/09 06:29:54;;;;;;;4.07;2.57;;;17.50;99.90;;;;;;5072277;28;20443;-59
2022/07/09 06:32:20;;;;;;;5.93;2.90;;;17.60;99.90;;;;;;5072306;28;20443;-60
2022/07/09 06:34:47;;;;;;;6.13;2.40;;;17.60;99.90;;;;;;5072222;28;20450;-59
2022/07/09 06:37:13;;;;;;;4.87;2.20;;;17.60;99.90;;;;;;5073593;28;20542;-59
2022/07/09 06:39:46;;;;;;;4.47;2.43;;;17.70;99.90;;;;;;5075485;28;20450;-58
2022/07/09 06:42:14;;;;;;;2.60;2.10;;;17.70;99.90;;;;;;5075847;28;20466;-60
2022/07/09 06:44:41;;;;;;;7.00;2.47;;;17.60;99.90;;;;;;5075605;28;20540;-59
2022/07/09 06:47:09;;;;;;;3.73;2.40;;;17.70;99.90;;;;;;5075496;28;20450;-58
2022/07/09 06:49:35;;;;;;;5.03;2.43;;;17.70;99.90;;;;;;5075398;28;20443;-59
2022/07/09 06:52:02;;;;;;;3.80;2.20;;;17.80;99.90;;;;;;5075305;28;20458;-59
2022/07/09 06:54:28;;;;;;;6.27;2.63;;;17.90;99.90;;;;;;5075209;28;20451;-58
2022/07/09 06:56:56;;;;;;;3.13;2.10;;;17.90;99.90;;;;;;5075294;28;20558;-59
2022/07/09 06:59:22;;;;;;;4.33;2.27;;;18.00;99.90;;;;;;5075422;28;20448;-59
2022/07/09 07:01:49;;;;;;;4.37;2.50;;;18.10;99.90;;;;;;5075205;28;20483;-59
2022/07/09 07:04:17;;;;;;;3.00;2.30;;;18.20;99.90;;;;;;5075157;28;20453;-58
2022/07/09 07:06:44;;;;;;;4.57;2.60;;;18.20;99.90;;;;;;5075048;28;20538;-59
2022/07/09 07:09:10;;;;;;;4.93;2.17;;;18.10;99.90;;;;;;5075295;28;20455;-57
2022/07/09 07:11:37;;;;;;;3.73;2.50;;;18.10;99.90;;;;;;5075154;28;20458;-58
2022/07/09 07:14:03;;;;;;;2.87;2.57;;;18.20;99.90;;;;;;5075081;28;20870;-58
2022/07/09 07:16:30;;;;;;;2.50;2.10;;;18.30;99.90;;;;;;5075006;28;20450;-57
2022/07/09 07:18:56;;;;;;;7.17;2.33;;;18.40;99.90;;;;;;5074930;28;20872;-59
2022/07/09 07:21:24;;;;;;;3.90;2.27;;;18.50;99.90;;;;;;5074641;28;20566;-59
2022/07/09 07:23:51;;;;;;;5.97;2.60;;;18.60;99.90;;;;;;5074895;28;20474;-59
2022/07/09 07:26:17;;;;;;;3.00;2.30;;;18.60;99.90;;;;;;5074903;28;20447;-59
2022/07/09 07:28:43;;;;;;;2.70;2.50;;;18.60;99.90;;;;;;5074780;28;20825;-58
2022/07/09 07:31:10;;;;;;;3.67;2.37;;;18.60;99.90;;;;;;5074770;28;20444;-59
2022/07/09 07:33:38;;;;;;;2.87;2.00;;;18.70;99.90;;;;;;5074588;28;20449;-59
2022/07/09 07:36:05;;;;;;;3.53;2.07;;;18.80;99.90;;;;;;5074437;28;20802;-59
2022/07/09 07:38:33;;;;;;;2.33;2.07;;;18.90;99.90;;;;;;5074654;28;20447;-58
2022/07/09 07:41:00;;;;;;;4.30;2.30;;;18.90;99.90;;;;;;5074566;28;20489;-58
2022/07/09 07:43:26;;;;;;;2.63;2.30;;;18.90;99.90;;;;;;5074393;28;20453;-59
2022/07/09 07:45:52;;;;;;;3.50;2.33;;;19.00;99.90;;;;;;5074406;28;20439;-59
2022/07/09 07:48:19;;;;;;;2.67;2.47;;;19.00;99.90;;;;;;5073787;28;20450;-59
2022/07/09 07:50:45;;;;;;;4.30;2.10;;;18.80;99.90;;;;;;5074420;28;20856;-59
2022/07/09 07:53:12;;;;;;;3.93;1.90;;;18.80;99.90;;;;;;5074383;28;20747;-59
2022/07/09 07:55:40;;;;;;;5.80;2.60;;;18.80;99.90;;;;;;5074205;28;20538;-58
2022/07/09 07:58:06;;;;;;;1.90;1.80;;;18.90;99.90;;;;;;5073877;28;20479;-58
2022/07/09 08:00:33;;;;;;;3.60;2.50;;;19.20;99.90;;;;;;5073958;28;20558;-59
2022/07/09 08:02:59;;;;;;;4.20;2.80;;;19.40;99.90;;;;;;5073880;28;20562;-59
2022/07/09 08:05:26;;;;;;;4.03;2.40;;;19.60;99.90;;;;;;5073798;28;20950;-59
2022/07/09 08:07:52;;;;;;;3.03;1.90;;;19.80;99.90;;;;;;5073982;28;20542;-59
2022/07/09 08:10:19;;;;;;;1.80;1.70;;;19.70;99.90;;;;;;5073984;28;20530;-59
2022/07/09 08:12:47;;;;;;;2.63;2.43;;;19.90;99.90;;;;;;5074422;28;20539;-58
2022/07/09 08:15:13;;;;;;;3.50;2.07;;;19.90;99.90;;;;;;5074023;28;20448;-58
2022/07/09 08:17:40;;;;;;;2.83;2.20;;;20.10;99.90;;;;;;5073630;28;20455;-59
2022/07/09 08:20:08;;;;;;;3.00;2.13;;;20.30;99.90;;;;;;5073999;28;20581;-58
2022/07/09 08:22:34;;;;;;;4.90;1.90;;;20.50;99.90;;;;;;5073517;28;20487;-58
2022/07/09 08:25:01;;;;;;;2.60;1.80;;;20.40;99.90;;;;;;5073396;28;20951;-58
2022/07/09 08:27:27;;;;;;;3.90;1.90;;;20.30;99.90;;;;;;5073307;28;20531;-58
2022/07/09 08:29:55;;;;;;;4.40;2.30;;;20.30;99.90;;;;;;5073341;28;20447;-59
2022/07/09 08:32:22;;;;;;;2.70;2.10;;;20.30;99.90;;;;;;5073308;28;20443;-58
2022/07/09 08:34:48;;;;;;;2.57;1.90;;;20.20;99.90;;;;;;5073553;28;20443;-59
2022/07/09 08:37:15;;;;;;;5.37;2.93;;;20.20;99.90;;;;;;5073090;28;20443;-58
2022/07/09 08:39:41;;;;;;;2.97;1.77;;;20.00;99.90;;;;;;5073344;28;20443;-58
2022/07/09 08:42:10;;;;;;;4.43;2.43;;;19.90;99.90;;;;;;5073137;28;20514;-59
2022/07/09 08:44:42;;;;;;;4.13;1.80;;;19.90;99.90;;;;;;5073097;28;20450;-59
2022/07/09 08:47:11;;;;;;;2.63;2.20;;;19.90;99.90;;;;;;5073098;28;20931;-59
2022/07/09 08:49:38;;;;;;;2.07;1.70;;;19.80;99.90;;;;;;5073151;28;20457;-59
2022/07/09 08:52:06;;;;;;;2.63;2.30;;;19.90;99.90;;;;;;5073165;28;20542;-59
2022/07/09 08:54:35;;;;;;;3.83;1.77;;;19.90;99.90;;;;;;5073100;28;20543;-59
2022/07/09 08:57:01;;;;;;;5.57;1.93;;;20.00;99.90;;;;;;5072935;28;20497;-60
2022/07/09 08:59:28;;;;;;;1.83;1.73;;;20.20;99.90;;;;;;5072230;28;20443;-59
2022/07/09 09:01:54;;;;;;;2.50;1.80;;;20.50;99.90;;;;;;5073327;28;20834;-59
2022/07/09 09:04:23;;;;;;;2.63;1.77;;;20.70;99.90;;;;;;5073064;28;20479;-59
2022/07/09 09:06:50;;;;;;;2.13;1.63;;;21.00;99.90;;;;;;5072824;28;20896;-59
2022/07/09 09:09:20;;;;;;;4.13;1.90;;;21.10;99.90;;;;;;5072940;28;20490;-59
2022/07/09 09:11:49;;;;;;;2.20;1.70;;;21.20;99.90;;;;;;5072849;28;20501;-59
2022/07/09 09:14:20;;;;;;;2.93;1.87;;;21.30;99.90;;;;;;5073105;28;20461;-59
2022/07/09 09:16:47;;;;;;;2.63;1.73;;;21.40;99.90;;;;;;5072975;28;20452;-59
2022/07/09 09:19:14;;;;;;;2.33;1.60;;;21.30;99.90;;;;;;5072885;28;20451;-59
2022/07/09 09:21:42;;;;;;;2.00;1.90;;;21.30;99.90;;;;;;5072730;28;20489;-58
2022/07/09 09:24:08;;;;;;;3.60;2.00;;;21.30;99.90;;;;;;5072634;28;20447;-59
2022/07/09 09:26:36;;;;;;;3.07;1.83;;;21.20;99.90;;;;;;5072676;28;20535;-59
2022/07/09 09:29:04;;;;;;;5.00;2.27;;;21.00;99.90;;;;;;5072878;28;20542;-59
2022/07/09 09:31:32;;;;;;;2.73;1.80;;;20.60;99.90;;;;;;5072598;28;20927;-59
2022/07/09 09:34:10;;;;;;;2.10;1.90;;;20.60;99.90;;;;;;5072595;28;20470;-59
2022/07/09 09:36:38;;;;;;;3.10;2.00;;;20.50;99.90;;;;;;5072573;28;20542;-59
2022/07/09 09:39:14;;;;;;;2.07;1.70;;;20.30;99.90;;;;;;5072443;28;20458;-58
2022/07/09 09:41:42;;;;;;;5.10;2.57;;;20.30;99.90;;;;;;5072749;28;20515;-59
2022/07/09 09:44:11;;;;;;;4.17;2.10;;;20.20;99.90;;;;;;5072771;28;20481;-58
2022/07/09 09:46:38;;;;;;;2.50;1.70;;;20.20;99.90;;;;;;5072577;28;20857;-58
2022/07/09 09:49:07;;;;;;;2.60;1.77;;;20.20;99.90;;;;;;5072381;28;20954;-60
2022/07/09 09:51:36;;;;;;;4.67;2.10;;;20.10;99.90;;;;;;5072348;28;20962;-58
2022/07/09 09:54:04;;;;;;;4.77;2.60;;;20.00;99.90;;;;;;5072636;28;20456;-59
2022/07/09 09:56:33;;;;;;;3.00;1.37;;;19.90;99.90;;;;;;5072304;28;20483;-58
2022/07/09 09:59:00;;;;;;;5.50;2.10;;;19.90;99.90;;;;;;5072518;28;20451;-59
2022/07/09 10:01:28;;;;;;;2.33;1.80;;;19.80;99.90;;;;;;5072244;28;20562;-59
2022/07/09 10:03:55;;;;;;;2.80;1.90;;;19.60;99.90;;;;;;5072155;28;20457;-59
2022/07/09 10:06:21;;;;;;;4.27;2.40;;;19.60;99.90;;;;;;5072401;28;20447;-58
2022/07/09 10:08:48;;;;;;;2.70;2.20;;;19.60;99.90;;;;;;5072412;28;20447;-58
2022/07/09 10:11:14;;;;;;;2.73;2.00;;;19.40;99.90;;;;;;5074006;28;20449;-59
2022/07/09 10:13:52;;;;;;;3.20;2.07;;;19.20;99.90;;;;;;5075985;28;20448;-59
2022/07/09 10:16:19;;;;;;;3.70;2.20;;;19.00;99.90;;;;;;5076020;28;20857;-59
2022/07/09 10:18:52;;;;;;;3.07;2.27;;;19.00;99.90;;;;;;5075932;28;20508;-59
2022/07/09 10:21:18;;;;;;;4.20;2.97;;;19.10;99.90;;;;;;5076038;28;20507;-59
2022/07/09 10:23:50;;;;;;;4.37;2.67;;;19.20;99.90;;;;;;5075955;28;20447;-59
2022/07/09 10:26:17;;;;;;;2.63;2.10;;;19.30;99.90;;;;;;5075875;28;20462;-60
2022/07/09 10:28:43;;;;;;;2.60;2.40;;;19.30;99.90;;;;;;5075816;28;20478;-59
2022/07/09 10:31:18;;;;;;;2.20;2.03;;;19.40;99.90;;;;;;5075758;28;20483;-59
2022/07/09 10:33:49;;;;;;;2.03;1.70;;;19.50;99.90;;;;;;5075945;28;20451;-59
2022/07/09 10:36:17;;;;;;;2.13;2.03;;;19.60;99.90;;;;;;5075848;28;20459;-59
2022/07/09 10:38:55;;;;;;;3.40;2.50;;;19.60;99.90;;;;;;5075763;28;20473;-59
2022/07/09 10:41:23;;;;;;;4.00;2.80;;;19.70;99.90;;;;;;5075596;28;20467;-59
2022/07/09 10:43:51;;;;;;;3.50;3.17;;;19.80;99.90;;;;;;5075723;28;20458;-59
2022/07/09 10:46:20;;;;;;;3.00;2.80;;;20.00;99.90;;;;;;5075600;28;20451;-59
2022/07/09 10:48:47;;;;;;;3.40;2.60;;;20.10;99.90;;;;;;5075590;28;20559;-59
2022/07/09 10:51:19;;;;;;;3.23;2.90;;;20.20;99.90;;;;;;5075589;28;20508;-59
2022/07/09 10:53:45;;;;;;;4.33;3.63;;;20.30;99.90;;;;;;5075302;28;20454;-59
2022/07/09 10:56:12;;;;;;;2.97;2.77;;;20.40;99.90;;;;;;5075069;28;20475;-59
2022/07/09 10:58:46;;;;;;;5.30;3.40;;;20.50;99.90;;;;;;5075448;28;20538;-58
2022/07/09 11:01:21;;;;;;;3.53;3.00;;;20.50;99.90;;;;;;5075386;28;20483;-59
2022/07/09 11:03:50;;;;;;;4.07;3.20;;;20.80;99.90;;;;;;5075270;28;20495;-59
2022/07/09 11:06:17;;;;;;;3.20;2.90;;;20.80;99.90;;;;;;5075104;28;20447;-59
2022/07/09 11:08:43;;;;;;;5.10;3.43;;;20.80;99.90;;;;;;5075101;28;20458;-59
2022/07/09 11:11:10;;;;;;;15.10;4.23;;;20.90;99.90;;;;;;5074999;28;21042;-59
2022/07/09 11:13:36;;;;;;;5.17;3.40;;;21.10;99.90;;;;;;5075221;28;20931;-59
2022/07/09 11:16:04;;;;;;;7.60;3.60;;;21.30;99.90;;;;;;5075024;28;20447;-59
2022/07/09 11:18:32;;;;;;;3.37;3.07;;;21.50;99.90;;;;;;5074949;28;20546;-59
2022/07/09 11:20:58;;;;;;;3.40;2.83;;;21.60;99.90;;;;;;5074742;28;20542;-59
2022/07/09 11:23:25;;;;;;;3.00;2.60;;;21.90;99.90;;;;;;5073814;28;20482;-59
2022/07/09 11:25:51;;;;;;;3.07;2.77;;;22.10;99.90;;;;;;5074973;28;20538;-58
2022/07/09 11:28:21;;;;;;;4.27;2.70;;;22.40;99.90;;;;;;5074842;28;20832;-59
2022/07/09 11:30:58;;;;;;;2.37;2.17;;;22.60;99.90;;;;;;5074638;28;20930;-59
2022/07/09 11:33:25;;;;;;;4.10;2.03;;;22.80;99.90;;;;;;5074505;28;20465;-59
2022/07/09 11:35:53;;;;;;;4.07;1.60;;;22.90;99.90;;;;;;5074716;28;20483;-59
2022/07/09 11:38:19;;;;;;;2.10;1.90;;;23.00;99.90;;;;;;5074573;28;20520;-58
2022/07/09 11:40:46;;;;;;;2.00;1.90;;;22.70;99.90;;;;;;5074587;28;20451;-59
2022/07/09 11:43:16;;;;;;;2.57;2.03;;;22.50;99.90;;;;;;5074300;28;20479;-59
2022/07/09 11:45:53;;;;;;;1.93;1.83;;;22.40;99.90;;;;;;5074272;28;20454;-59
2022/07/09 11:48:19;;;;;;;2.20;2.10;;;22.50;99.90;;;;;;5074216;28;20463;-59
2022/07/09 11:50:46;;;;;;;4.13;2.50;;;22.60;99.90;;;;;;5074324;28;20810;-58
2022/07/09 11:53:21;;;;;;;4.20;2.00;;;22.50;99.90;;;;;;5074334;28;20452;-58
2022/07/09 11:55:58;;;;;;;2.67;1.90;;;22.50;99.90;;;;;;5073857;28;20953;-59
2022/07/09 11:58:25;;;;;;;1.50;1.37;;;22.80;99.90;;;;;;5074116;28;20451;-59
2022/07/09 12:00:51;;;;;;;7.70;2.10;;;23.10;99.90;;;;;;5073927;28;20886;-59
2022/07/09 12:03:24;;;;;;;3.23;1.50;;;23.20;99.90;;;;;;5073907;28;20560;-59
2022/07/09 12:05:51;;;;;;;2.73;1.77;;;23.30;99.90;;;;;;5073975;28;20458;-59
2022/07/09 12:08:29;;;;;;;2.73;1.90;;;23.30;99.90;;;;;;5073906;28;20454;-59
2022/07/09 12:10:56;;;;;;;1.50;1.40;;;23.10;99.90;;;;;;5073623;28;20811;-59
2022/07/09 12:13:23;;;;;;;3.63;1.93;;;23.00;99.90;;;;;;5073857;28;20463;-59
2022/07/09 12:15:49;;;;;;;2.20;1.80;;;22.90;99.90;;;;;;5073796;28;20452;-59
2022/07/09 12:18:16;;;;;;;1.70;1.40;;;22.90;99.90;;;;;;5073774;28;20443;-59
2022/07/09 12:20:42;;;;;;;2.80;1.70;;;22.90;99.90;;;;;;5073690;28;20448;-59
2022/07/09 12:23:09;;;;;;;1.60;1.40;;;23.00;99.90;;;;;;5073395;28;20485;-59
2022/07/09 12:25:37;;;;;;;1.87;1.37;;;23.10;99.90;;;;;;5073469;28;20803;-59
2022/07/09 12:28:04;;;;;;;5.53;1.63;;;23.00;99.90;;;;;;5073575;28;20538;-59
2022/07/09 12:30:30;;;;;;;2.13;1.73;;;23.00;99.90;;;;;;5073168;28;20475;-59
2022/07/09 12:32:58;;;;;;;1.70;1.60;;;23.00;99.90;;;;;;5073359;28;20736;-59
2022/07/09 12:35:25;;;;;;;3.33;1.40;;;22.70;99.90;;;;;;5073281;28;21016;-59
2022/07/09 12:37:52;;;;;;;1.70;1.60;;;22.40;99.90;;;;;;5073242;28;20801;-58
2022/07/09 12:40:18;;;;;;;3.60;1.63;;;22.20;99.90;;;;;;5073049;28;20447;-59
2022/07/09 12:42:46;;;;;;;3.53;2.60;;;22.10;99.90;;;;;;5073058;28;21008;-59
2022/07/09 12:45:13;;;;;;;2.80;1.30;;;22.10;99.90;;;;;;5073107;28;21005;-58